createdAt,value
2022-09-23T00:01:11.277Z,86.52
2022-09-23T00:03:41.994Z,86.37
2022-09-23T00:06:14.712Z,86.28
2022-09-23T00:08:41.507Z,86.36
2022-09-23T00:11:11.430Z,86.21
2022-09-23T00:13:39.571Z,86.57
2022-09-23T00:16:09.429Z,86.71
2022-09-23T00:18:36.478Z,87.39
2022-09-23T00:21:08.447Z,87.39
2022-09-23T00:23:35.299Z,87.28
2022-09-23T00:26:04.250Z,86.92
2022-09-23T00:28:31.548Z,87.28
2022-09-23T00:31:03.200Z,88.25
2022-09-23T00:33:30.121Z,88.13
2022-09-23T00:36:05.160Z,87.77
2022-09-23T00:38:32.115Z,88.32
2022-09-23T00:40:58.948Z,88.87
2022-09-23T00:43:55.066Z,89.14
2022-09-23T00:46:25.482Z,89.17
2022-09-23T00:49:03.400Z,89.43
2022-09-23T00:51:35.092Z,90.74
2022-09-23T00:54:02.670Z,91.90
2022-09-23T00:56:30.968Z,91.87
2022-09-23T00:58:57.893Z,90.76
2022-09-23T01:01:25.272Z,91.12
2022-09-23T01:03:52.786Z,90.78
2022-09-23T01:06:20.285Z,90.59
2022-09-23T01:08:47.331Z,90.18
2022-09-23T01:11:25.936Z,90.30
2022-09-23T01:14:02.293Z,91.23
2022-09-23T01:16:45.854Z,91.80
2022-09-23T01:19:33.690Z,91.68
2022-09-23T01:22:28.071Z,92.97
2022-09-23T01:25:32.349Z,92.89
2022-09-23T01:28:04.452Z,92.26
2022-09-23T01:31:12.809Z,93.71
2022-09-23T01:33:47.830Z,92.53
2022-09-23T01:36:23.732Z,91.46
2022-09-23T01:39:01.235Z,90.79
2022-09-23T01:41:36.991Z,89.98
2022-09-23T01:44:11.129Z,89.68
2022-09-23T01:47:01.131Z,89.75
2022-09-23T01:49:59.377Z,90.18
2022-09-23T01:52:35.661Z,89.96
2022-09-23T01:55:14.226Z,90.01
2022-09-23T01:57:43.884Z,91.23
2022-09-23T02:00:15.204Z,90.54
2022-09-23T02:03:07.135Z,90.19
2022-09-23T02:05:38.798Z,91.09
2022-09-23T02:08:17.655Z,91.55
2022-09-23T02:10:56.487Z,91.91
2022-09-23T02:13:29.940Z,91.79
2022-09-23T02:16:01.153Z,91.76
2022-09-23T02:18:54.048Z,91.83
2022-09-23T02:21:21.977Z,94.04
2022-09-23T02:23:56.652Z,94.74
2022-09-23T02:26:32.696Z,95.63
2022-09-23T02:29:22.562Z,94.63
2022-09-23T02:32:06.388Z,93.95
2022-09-23T02:34:58.403Z,93.76
2022-09-23T02:37:53.145Z,94.28
2022-09-23T02:40:33.760Z,94.28
2022-09-23T02:43:28.093Z,93.65
2022-09-23T02:45:56.199Z,93.28
2022-09-23T02:48:27.001Z,93.34
2022-09-23T02:50:54.473Z,93.68
2022-09-23T02:53:23.696Z,94.52
2022-09-23T02:55:51.087Z,95.71
2022-09-23T02:58:17.920Z,95.69
2022-09-23T03:01:23.499Z,95.68
2022-09-23T03:04:14.890Z,95.61
2022-09-23T03:06:51.009Z,95.44
2022-09-23T03:09:25.899Z,95.23
2022-09-23T03:12:17.150Z,95.30
2022-09-23T03:14:52.197Z,95.05
2022-09-23T03:17:27.498Z,94.76
2022-09-23T03:20:01.400Z,95.08
2022-09-23T03:22:33.762Z,94.11
2022-09-23T03:25:03.827Z,94.08
2022-09-23T03:27:31.788Z,95.12
2022-09-23T03:29:59.056Z,96.62
2022-09-23T03:32:27.987Z,95.83
2022-09-23T03:34:57.636Z,95.95
2022-09-23T03:37:41.973Z,96.98
2022-09-23T03:40:30.109Z,96.80
2022-09-23T03:42:57.579Z,97.33
2022-09-23T03:45:28.385Z,97.68
2022-09-23T03:47:55.289Z,97.31
2022-09-23T03:50:22.337Z,96.90
2022-09-23T03:52:50.562Z,97.72
2022-09-23T03:55:19.294Z,97.08
2022-09-23T03:57:46.308Z,97.13
2022-09-23T04:00:14.355Z,96.88
2022-09-23T04:02:41.814Z,95.87
2022-09-23T04:05:09.497Z,95.08
2022-09-23T04:07:36.499Z,94.43
2022-09-23T04:10:05.032Z,94.17
2022-09-23T04:12:33.201Z,93.45
2022-09-23T04:15:00.158Z,93.02
2022-09-23T04:17:26.963Z,92.79
2022-09-23T04:19:53.815Z,92.81
2022-09-23T04:22:23.622Z,92.77
2022-09-23T04:24:50.890Z,92.58
2022-09-23T04:27:17.671Z,92.36
2022-09-23T04:29:44.616Z,92.21
2022-09-23T04:32:11.684Z,92.04
2022-09-23T04:34:38.524Z,92.19
2022-09-23T04:37:05.382Z,91.90
2022-09-23T04:39:32.219Z,91.77
2022-09-23T04:41:59.650Z,91.72
2022-09-23T04:44:28.088Z,91.65
2022-09-23T04:46:55.009Z,91.76
2022-09-23T04:49:21.913Z,91.87
2022-09-23T04:51:48.985Z,91.97
2022-09-23T04:54:16.011Z,92.16
2022-09-23T04:56:42.951Z,92.02
2022-09-23T04:59:09.864Z,92.22
2022-09-23T05:01:37.961Z,92.36
2022-09-23T05:04:07.404Z,92.19
2022-09-23T05:06:36.901Z,92.27
2022-09-23T05:09:06.250Z,91.90
2022-09-23T05:11:33.704Z,91.69
2022-09-23T05:14:00.606Z,91.52
2022-09-23T05:16:27.493Z,91.64
2022-09-23T05:18:54.606Z,91.40
2022-09-23T05:21:23.217Z,91.16
2022-09-23T05:23:54.211Z,90.76
2022-09-23T05:26:25.590Z,90.49
2022-09-23T05:28:53.934Z,90.08
2022-09-23T05:31:22.678Z,89.01
2022-09-23T05:33:52.071Z,87.75
2022-09-23T05:36:21.285Z,86.57
2022-09-23T05:38:50.046Z,85.52
2022-09-23T05:41:19.061Z,86.07
2022-09-23T05:43:45.907Z,84.82
2022-09-23T05:46:14.160Z,83.93
2022-09-23T05:48:42.102Z,84.04
2022-09-23T05:51:12.832Z,85.14
2022-09-23T05:53:40.554Z,84.57
2022-09-23T05:56:08.048Z,83.25
2022-09-23T05:58:34.906Z,82.64
2022-09-23T06:01:01.842Z,82.79
2022-09-23T06:03:28.727Z,83.21
2022-09-23T06:05:56.075Z,82.75
2022-09-23T06:08:23.741Z,82.82
2022-09-23T06:10:54.433Z,83.00
2022-09-23T06:13:21.615Z,82.49
2022-09-23T06:15:48.467Z,82.08
2022-09-23T06:18:15.349Z,81.66
2022-09-23T06:20:42.209Z,81.82
2022-09-23T06:23:11.021Z,80.95
2022-09-23T06:25:41.529Z,81.13
2022-09-23T06:28:12.187Z,80.41
2022-09-23T06:30:42.536Z,80.15
2022-09-23T06:33:10.141Z,79.07
2022-09-23T06:35:37.154Z,78.66
2022-09-23T06:38:04.927Z,78.22
2022-09-23T06:40:31.906Z,78.04
2022-09-23T06:43:00.625Z,76.72
2022-09-23T06:45:28.060Z,76.50
2022-09-23T06:47:56.622Z,75.74
2022-09-23T06:50:27.487Z,74.46
2022-09-23T06:52:56.317Z,73.90
2022-09-23T06:55:24.610Z,73.24
2022-09-23T06:57:51.470Z,72.66
2022-09-23T07:00:18.653Z,73.23
2022-09-23T07:02:45.731Z,71.16
2022-09-23T07:05:12.943Z,70.37
2022-09-23T07:07:39.780Z,70.07
2022-09-23T07:10:07.286Z,68.47
2022-09-23T07:12:34.072Z,67.49
2022-09-23T07:15:00.861Z,67.08
2022-09-23T07:17:28.010Z,65.60
2022-09-23T07:19:58.528Z,66.76
2022-09-23T07:22:26.522Z,67.62
2022-09-23T07:24:57.164Z,66.60
2022-09-23T07:27:25.372Z,66.97
2022-09-23T07:29:52.430Z,65.62
2022-09-23T07:32:20.360Z,64.77
2022-09-23T07:34:47.619Z,65.52
2022-09-23T07:37:16.545Z,65.03
2022-09-23T07:39:44.391Z,64.73
2022-09-23T07:42:12.448Z,63.45
2022-09-23T07:44:39.593Z,63.35
2022-09-23T07:47:06.459Z,62.03
2022-09-23T07:49:35.561Z,62.62
2022-09-23T07:52:02.941Z,62.95
2022-09-23T07:54:30.021Z,62.07
2022-09-23T07:56:57.245Z,61.64
2022-09-23T07:59:27.036Z,61.49
2022-09-23T08:01:55.097Z,59.42
2022-09-23T08:04:23.806Z,60.32
2022-09-23T08:07:01.898Z,62.68
2022-09-23T08:09:31.981Z,60.90
2022-09-23T08:11:59.091Z,60.11
2022-09-23T08:14:26.035Z,59.47
2022-09-23T08:16:53.700Z,58.80
2022-09-23T08:19:20.481Z,59.04
2022-09-23T08:21:47.587Z,58.46
2022-09-23T08:24:18.960Z,57.24
2022-09-23T08:26:46.664Z,56.84
2022-09-23T08:29:15.108Z,57.03
2022-09-23T08:31:42.006Z,55.33
2022-09-23T08:34:09.161Z,56.04
2022-09-23T08:36:36.461Z,55.87
2022-09-23T08:39:04.137Z,56.40
2022-09-23T08:41:43.622Z,56.05
2022-09-23T08:44:39.000Z,54.85
2022-09-23T08:47:10.559Z,53.73
2022-09-23T08:49:41.419Z,53.70
2022-09-23T08:52:34.558Z,53.48
2022-09-23T08:55:03.252Z,51.99
2022-09-23T08:58:24.919Z,52.44
2022-09-23T09:01:16.252Z,52.27
2022-09-23T09:03:47.864Z,53.26
2022-09-23T09:06:22.504Z,52.67
2022-09-23T09:08:57.033Z,51.59
2022-09-23T09:11:31.368Z,51.99
2022-09-23T09:14:18.264Z,51.66
2022-09-23T09:17:07.918Z,52.28
2022-09-23T09:20:13.334Z,52.60
2022-09-23T09:22:53.023Z,51.11
2022-09-23T09:25:33.463Z,51.70
2022-09-23T09:28:01.488Z,50.65
2022-09-23T09:30:28.506Z,50.27
2022-09-23T09:33:01.777Z,50.05
2022-09-23T09:35:36.775Z,49.18
2022-09-23T09:38:05.685Z,49.67
2022-09-23T09:40:34.610Z,49.26
2022-09-23T09:43:05.838Z,49.37
2022-09-23T09:45:57.689Z,49.75
2022-09-23T09:49:05.796Z,48.20
2022-09-23T09:51:32.714Z,49.02
2022-09-23T09:54:27.351Z,49.09
2022-09-23T09:56:54.735Z,47.74
2022-09-23T09:59:26.463Z,48.58
2022-09-23T10:02:34.273Z,47.89
2022-09-23T10:05:03.962Z,48.45
2022-09-23T10:07:32.740Z,48.03
2022-09-23T10:10:31.734Z,48.31
2022-09-23T10:13:14.641Z,47.86
2022-09-23T10:15:45.038Z,47.43
2022-09-23T10:18:31.956Z,48.37
2022-09-23T10:21:23.121Z,48.76
2022-09-23T10:23:58.169Z,48.91
2022-09-23T10:26:42.415Z,49.81
2022-09-23T10:29:37.252Z,49.42
2022-09-23T10:32:18.968Z,49.93
2022-09-23T10:34:48.983Z,50.04
2022-09-23T10:37:20.547Z,50.65
2022-09-23T10:40:05.991Z,50.87
2022-09-23T10:43:16.911Z,51.37
2022-09-23T10:46:07.381Z,49.69
2022-09-23T10:48:59.152Z,47.51
2022-09-23T10:51:39.988Z,49.21
2022-09-23T10:54:18.270Z,47.48
2022-09-23T10:57:02.447Z,48.22
2022-09-23T10:59:47.624Z,47.84
2022-09-23T11:02:20.354Z,46.88
2022-09-23T11:04:55.947Z,47.68
2022-09-23T11:07:33.818Z,47.49
2022-09-23T11:10:45.438Z,47.17
2022-09-23T11:13:23.289Z,46.16
2022-09-23T11:15:58.786Z,47.34
2022-09-23T11:18:26.776Z,47.63
2022-09-23T11:21:02.458Z,47.66
2022-09-23T11:23:38.534Z,47.59
2022-09-23T11:26:32.260Z,46.71
2022-09-23T11:29:20.143Z,48.43
2022-09-23T11:32:04.350Z,48.26
2022-09-23T11:34:43.209Z,47.92
2022-09-23T11:37:14.052Z,49.08
2022-09-23T11:39:59.813Z,48.57
2022-09-23T11:42:30.134Z,48.15
2022-09-23T11:45:06.939Z,49.11
2022-09-23T11:47:58.963Z,49.25
2022-09-23T11:50:32.346Z,47.77
2022-09-23T11:53:31.395Z,48.10
2022-09-23T11:56:06.257Z,48.42
2022-09-23T11:58:56.487Z,48.90
2022-09-23T12:01:37.072Z,49.32
2022-09-23T12:04:22.724Z,49.68
2022-09-23T12:07:10.358Z,50.32
2022-09-23T12:09:58.384Z,50.13
2022-09-23T12:12:54.825Z,49.92
2022-09-23T12:15:37.301Z,50.74
2022-09-23T12:18:42.169Z,50.13
2022-09-23T12:21:39.096Z,50.20
2022-09-23T12:24:45.670Z,50.50
2022-09-23T12:27:36.983Z,51.64
2022-09-23T12:30:15.660Z,52.01
2022-09-23T12:32:43.122Z,52.46
2022-09-23T12:35:45.585Z,52.12
2022-09-23T12:38:14.618Z,52.69
2022-09-23T12:40:44.533Z,52.08
2022-09-23T12:43:30.650Z,50.95
2022-09-23T12:46:19.800Z,50.04
2022-09-23T12:48:57.360Z,50.57
2022-09-23T12:51:28.371Z,50.85
2022-09-23T12:53:57.899Z,51.29
2022-09-23T12:56:27.758Z,52.02
2022-09-23T12:59:16.522Z,52.28
2022-09-23T13:01:43.793Z,52.24
2022-09-23T13:05:02.394Z,52.87
2022-09-23T13:07:33.915Z,52.81
2022-09-23T13:10:16.227Z,52.52
2022-09-23T13:12:43.582Z,52.67
2022-09-23T13:15:36.679Z,52.42
2022-09-23T13:18:18.707Z,52.42
2022-09-23T13:20:46.998Z,52.63
2022-09-23T13:23:27.403Z,52.42
2022-09-23T13:25:56.553Z,52.46
2022-09-23T13:28:33.778Z,52.63
2022-09-23T13:31:06.428Z,52.79
2022-09-23T13:33:42.700Z,53.24
2022-09-23T13:36:19.691Z,53.23
2022-09-23T13:38:47.139Z,53.10
2022-09-23T13:41:20.176Z,53.62
2022-09-23T13:43:58.766Z,53.15
2022-09-23T13:46:28.407Z,51.76
2022-09-23T13:48:56.075Z,51.08
2022-09-23T13:51:43.226Z,52.10
2022-09-23T13:54:33.430Z,51.43
2022-09-23T13:57:00.464Z,52.17
2022-09-23T13:59:36.203Z,51.47
2022-09-23T14:02:14.290Z,51.63
2022-09-23T14:04:41.317Z,51.74
2022-09-23T14:07:09.917Z,51.75
2022-09-23T14:09:37.123Z,50.63
2022-09-23T14:12:06.115Z,50.93
2022-09-23T14:14:35.384Z,51.41
2022-09-23T14:17:02.609Z,51.54
2022-09-23T14:19:29.577Z,51.70
2022-09-23T14:21:56.898Z,51.95
2022-09-23T14:24:32.342Z,52.19
2022-09-23T14:27:29.910Z,52.17
2022-09-23T14:29:57.445Z,52.43
2022-09-23T14:32:27.547Z,52.08
2022-09-23T14:35:00.420Z,52.41
2022-09-23T14:37:47.116Z,52.80
2022-09-23T14:40:25.021Z,52.71
2022-09-23T14:42:57.445Z,51.16
2022-09-23T14:45:25.999Z,51.54
2022-09-23T14:47:58.486Z,51.09
2022-09-23T14:50:37.120Z,50.10
2022-09-23T14:53:04.592Z,51.35
2022-09-23T14:55:31.540Z,51.37
2022-09-23T14:58:05.495Z,51.66
2022-09-23T15:00:32.378Z,51.77
2022-09-23T15:03:04.170Z,51.53
2022-09-23T15:05:47.788Z,51.55
2022-09-23T15:08:22.994Z,50.80
2022-09-23T15:10:50.580Z,51.12
2022-09-23T15:13:33.117Z,50.26
2022-09-23T15:16:01.855Z,50.53
2022-09-23T15:18:34.087Z,50.39
2022-09-23T15:21:02.674Z,50.97
2022-09-23T15:23:47.539Z,51.32
2022-09-23T15:26:14.370Z,51.79
2022-09-23T15:28:42.488Z,52.38
2022-09-23T15:31:13.568Z,52.98
2022-09-23T15:33:40.658Z,53.24
2022-09-23T15:36:16.402Z,53.55
2022-09-23T15:38:44.181Z,53.70
2022-09-23T15:41:11.177Z,53.95
2022-09-23T15:43:40.656Z,54.22
2022-09-23T15:46:12.692Z,54.62
2022-09-23T15:48:43.678Z,54.71
2022-09-23T15:51:13.794Z,55.31
2022-09-23T15:53:40.786Z,55.28
2022-09-23T15:56:07.734Z,55.61
2022-09-23T15:58:34.710Z,55.59
2022-09-23T16:01:01.853Z,55.87
2022-09-23T16:03:29.048Z,56.45
2022-09-23T16:06:02.279Z,57.39
2022-09-23T16:08:29.787Z,58.47
2022-09-23T16:10:56.686Z,58.56
2022-09-23T16:13:23.635Z,58.82
2022-09-23T16:15:50.641Z,59.39
2022-09-23T16:18:17.566Z,60.08
2022-09-23T16:20:45.737Z,61.15
2022-09-23T16:23:35.055Z,61.92
2022-09-23T16:26:08.270Z,63.59
2022-09-23T16:28:35.164Z,63.85
2022-09-23T16:31:02.186Z,64.21
2022-09-23T16:33:29.196Z,64.84
2022-09-23T16:35:56.146Z,65.50
2022-09-23T16:38:22.992Z,66.03
2022-09-23T16:40:50.300Z,66.39
2022-09-23T16:43:17.495Z,66.79
2022-09-23T16:45:45.764Z,67.44
2022-09-23T16:48:12.734Z,67.86
2022-09-23T16:50:40.346Z,68.31
2022-09-23T16:53:07.171Z,68.73
2022-09-23T16:55:33.914Z,69.08
2022-09-23T16:58:00.930Z,69.62
2022-09-23T17:00:46.382Z,69.89
2022-09-23T17:03:31.896Z,70.20
2022-09-23T17:06:00.688Z,70.71
2022-09-23T17:08:30.137Z,70.91
2022-09-23T17:10:58.606Z,71.09
2022-09-23T17:13:26.865Z,71.59
2022-09-23T17:15:54.260Z,71.84
2022-09-23T17:18:21.564Z,72.02
2022-09-23T17:21:02.089Z,72.05
2022-09-23T17:23:31.393Z,72.71
2022-09-23T17:25:59.508Z,72.26
2022-09-23T17:28:26.638Z,72.60
2022-09-23T17:31:03.959Z,72.89
2022-09-23T17:33:32.035Z,73.11
2022-09-23T17:36:00.039Z,73.30
2022-09-23T17:38:29.288Z,73.74
2022-09-23T17:40:59.084Z,74.37
2022-09-23T17:43:26.028Z,74.34
2022-09-23T17:45:55.418Z,74.75
2022-09-23T17:48:24.585Z,75.69
2022-09-23T17:51:02.173Z,77.91
2022-09-23T17:53:35.561Z,77.76
2022-09-23T17:56:07.456Z,77.42
2022-09-23T17:58:37.758Z,76.99
2022-09-23T18:01:08.663Z,76.99
2022-09-23T18:03:35.533Z,76.81
2022-09-23T18:06:12.518Z,76.79
2022-09-23T18:08:40.752Z,76.93
2022-09-23T18:11:15.600Z,77.01
2022-09-23T18:13:46.872Z,77.42
2022-09-23T18:16:13.801Z,77.42
2022-09-23T18:18:40.696Z,77.58
2022-09-23T18:21:07.767Z,77.94
2022-09-23T18:23:36.573Z,78.06
2022-09-23T18:26:04.261Z,78.10
2022-09-23T18:28:34.605Z,78.29
2022-09-23T18:31:01.868Z,78.56
2022-09-23T18:33:28.687Z,78.65
2022-09-23T18:35:55.587Z,79.02
2022-09-23T18:38:22.848Z,79.10
2022-09-23T18:40:56.281Z,79.57
2022-09-23T18:43:38.966Z,79.98
2022-09-23T18:46:13.406Z,79.87
2022-09-23T18:48:59.299Z,80.10
2022-09-23T18:51:29.005Z,80.27
2022-09-23T18:53:58.454Z,80.40
2022-09-23T18:56:27.907Z,80.37
2022-09-23T18:58:55.696Z,80.90
2022-09-23T19:01:23.527Z,80.95
2022-09-23T19:03:57.117Z,81.57
2022-09-23T19:06:24.478Z,81.78
2022-09-23T19:08:52.793Z,81.67
2022-09-23T19:11:20.211Z,81.87
2022-09-23T19:13:47.033Z,81.70
2022-09-23T19:16:15.765Z,81.85
2022-09-23T19:18:46.388Z,81.60
2022-09-23T19:21:14.479Z,81.97
2022-09-23T19:23:47.509Z,82.17
2022-09-23T19:26:16.425Z,82.37
2022-09-23T19:28:49.053Z,82.26
2022-09-23T19:31:23.013Z,82.86
2022-09-23T19:33:56.778Z,83.04
2022-09-23T19:36:28.398Z,82.87
2022-09-23T19:38:58.574Z,83.07
2022-09-23T19:41:28.265Z,82.66
2022-09-23T19:43:58.621Z,82.68
2022-09-23T19:46:25.658Z,82.69
2022-09-23T19:48:52.470Z,82.62
2022-09-23T19:51:19.397Z,82.67
2022-09-23T19:53:46.396Z,82.84
2022-09-23T19:56:17.816Z,82.97
2022-09-23T19:58:51.534Z,83.39
2022-09-23T20:01:18.895Z,83.51
2022-09-23T20:03:47.065Z,83.49
2022-09-23T20:06:15.014Z,83.82
2022-09-23T20:08:41.940Z,83.53
2022-09-23T20:11:27.585Z,83.46
2022-09-23T20:14:00.924Z,83.78
2022-09-23T20:16:29.494Z,83.99
2022-09-23T20:18:56.608Z,84.28
2022-09-23T20:21:23.415Z,83.91
2022-09-23T20:23:50.206Z,83.86
2022-09-23T20:26:35.650Z,83.94
2022-09-23T20:29:02.629Z,84.24
2022-09-23T20:31:29.517Z,84.55
2022-09-23T20:33:58.267Z,84.84
2022-09-23T20:36:29.393Z,84.81
2022-09-23T20:39:01.268Z,84.99
2022-09-23T20:41:30.109Z,85.50
2022-09-23T20:43:59.472Z,85.28
2022-09-23T20:46:27.190Z,85.36
2022-09-23T20:48:57.042Z,85.32
2022-09-23T20:51:24.822Z,85.45
2022-09-23T20:53:53.168Z,85.42
2022-09-23T20:56:21.489Z,85.10
2022-09-23T20:58:50.372Z,84.63
2022-09-23T21:01:17.616Z,84.37
2022-09-23T21:03:46.549Z,84.18
2022-09-23T21:06:16.050Z,84.28
2022-09-23T21:08:44.421Z,84.11
2022-09-23T21:11:13.340Z,83.92
2022-09-23T21:13:40.172Z,83.96
2022-09-23T21:16:10.377Z,83.96
2022-09-23T21:18:38.984Z,84.16
2022-09-23T21:21:06.488Z,84.23
2022-09-23T21:23:35.277Z,84.20
2022-09-23T21:26:14.556Z,84.15
2022-09-23T21:28:46.211Z,84.39
2022-09-23T21:31:25.785Z,84.54
2022-09-23T21:33:53.012Z,84.59
2022-09-23T21:36:20.409Z,84.55
2022-09-23T21:38:47.297Z,84.55
2022-09-23T21:41:14.129Z,84.52
2022-09-23T21:43:41.480Z,84.65
2022-09-23T21:46:13.485Z,84.86
2022-09-23T21:48:41.891Z,85.02
2022-09-23T21:51:11.864Z,85.06
2022-09-23T21:53:39.621Z,85.04
2022-09-23T21:56:09.227Z,84.94
2022-09-23T21:58:37.389Z,85.13
2022-09-23T22:01:18.811Z,85.56
2022-09-23T22:03:50.655Z,86.12
2022-09-23T22:06:21.434Z,86.26
2022-09-23T22:08:59.018Z,86.05
2022-09-23T22:11:47.381Z,86.07
2022-09-23T22:14:14.896Z,85.75
2022-09-23T22:16:42.113Z,85.55
2022-09-23T22:19:10.215Z,85.72
2022-09-23T22:21:38.768Z,85.59
2022-09-23T22:24:07.804Z,85.51
2022-09-23T22:26:35.581Z,85.54
2022-09-23T22:29:21.025Z,85.43
2022-09-23T22:32:06.321Z,85.41
2022-09-23T22:34:49.183Z,85.71
2022-09-23T22:37:28.164Z,85.56
2022-09-23T22:39:55.403Z,85.56
2022-09-23T22:42:22.549Z,85.62
2022-09-23T22:44:50.355Z,85.66
2022-09-23T22:47:18.094Z,85.70
2022-09-23T22:49:46.123Z,85.60
2022-09-23T22:52:14.906Z,85.70
2022-09-23T22:54:41.906Z,85.81
2022-09-23T22:57:09.140Z,85.78
2022-09-23T22:59:37.241Z,85.67
2022-09-23T23:02:05.133Z,85.96
2022-09-23T23:04:32.137Z,86.09
2022-09-23T23:06:59.124Z,86.27
2022-09-23T23:09:26.364Z,86.31
2022-09-23T23:11:53.189Z,86.25
2022-09-23T23:14:20.111Z,86.35
2022-09-23T23:16:47.325Z,86.39
2022-09-23T23:19:17.145Z,86.44
2022-09-23T23:21:45.211Z,86.54
2022-09-23T23:24:17.684Z,86.59
2022-09-23T23:26:45.008Z,86.89
2022-09-23T23:29:13.346Z,86.67
2022-09-23T23:31:40.596Z,86.68
2022-09-23T23:34:10.562Z,86.96
2022-09-23T23:36:37.733Z,87.35
2022-09-23T23:39:05.844Z,87.47
2022-09-23T23:41:32.695Z,87.43
2022-09-23T23:44:00.568Z,87.42
2022-09-23T23:46:28.955Z,87.35
2022-09-23T23:48:56.774Z,87.28
2022-09-23T23:51:27.871Z,87.13
2022-09-23T23:53:55.230Z,87.35
2022-09-23T23:56:26.033Z,87.44
2022-09-23T23:59:05.029Z,87.40
